TimeEDT,TemperatureF,Dew PointF,Humidity,Sea Level PressureIn,VisibilityMPH,Wind Direction,Wind SpeedMPH,Gust SpeedMPH,PrecipitationIn,Events,Conditions,WindDirDegrees,DateUTC
12:51 AM,44.6,39.2,81,-9999,90.0,NW,17.3,-,N/A,,Partly Cloudy,310,2013-09-20 04:51:00
1:51 AM,50.0,10.4,20,-9999,100.0,WNW,8.1,-,N/A,,Partly Cloudy,300,2013-09-20 05:51:00
2:54 AM,51.8,-0.4,12,-9999,100.0,SSW,5.8,-,N/A,,Partly Cloudy,210,2013-09-20 06:54:00
3:54 AM,50.0,3.2,15,-9999,100.0,West,9.2,-,N/A,,Partly Cloudy,260,2013-09-20 07:54:00
4:51 AM,50.0,5.0,16,-9999,100.0,WSW,9.2,-,N/A,,Partly Cloudy,250,2013-09-20 08:51:00
5:53 AM,50.0,1.4,14,-9999,90.0,WSW,9.2,-,N/A,,Partly Cloudy,240,2013-09-20 09:53:00
6:53 AM,50.0,5.0,16,-9999,85.0,West,16.1,-,N/A,,Scattered Clouds,260,2013-09-20 10:53:00
7:54 AM,48.2,12.2,24,-9999,85.0,West,15.0,-,N/A,,Partly Cloudy,270,2013-09-20 11:54:00
8:52 AM,48.2,30.2,50,-9999,85.0,WNW,13.8,-,N/A,,Scattered Clouds,290,2013-09-20 12:52:00
9:49 AM,50.0,30.2,47,-9999,85.0,West,3.5,-,N/A,,Scattered Clouds,270,2013-09-20 13:49:00
10:50 AM,51.8,35.6,54,-9999,90.0,West,9.2,-,N/A,,Scattered Clouds,260,2013-09-20 14:50:00
11:50 AM,53.6,41.0,62,-9999,90.0,WSW,12.7,-,N/A,,Scattered Clouds,250,2013-09-20 15:50:00
1:55 PM,53.6,41.0,62,-9999,90.0,WSW,15.0,20.7,N/A,,Mostly Cloudy,250,2013-09-20 17:55:00
2:56 PM,57.2,44.6,63,-9999,90.0,West,13.8,-,N/A,,Scattered Clouds,260,2013-09-20 18:56:00
3:50 PM,53.6,42.8,67,-9999,90.0,West,9.2,-,N/A,,Scattered Clouds,260,2013-09-20 19:50:00
4:51 PM,53.6,44.6,72,-9999,85.0,SW,9.2,-,N/A,,Partly Cloudy,230,2013-09-20 20:51:00
5:51 PM,53.6,30.2,41,-9999,85.0,WSW,12.7,-,N/A,,Partly Cloudy,240,2013-09-20 21:51:00
6:53 PM,51.8,32.0,47,-9999,90.0,SSW,16.1,20.7,N/A,,Partly Cloudy,210,2013-09-20 22:53:00
7:51 PM,51.8,23.0,33,-9999,110.0,SSW,19.6,25.3,N/A,,Partly Cloudy,210,2013-09-20 23:51:00
8:54 PM,50.0,24.8,37,-9999,110.0,SSW,23.0,-,N/A,,Scattered Clouds,200,2013-09-21 00:54:00
9:52 PM,48.2,32.0,54,-9999,110.0,South,28.8,-,N/A,,Mostly Cloudy,190,2013-09-21 01:52:00
10:49 PM,48.2,30.2,50,-9999,110.0,South,28.8,-,N/A,,Mostly Cloudy,190,2013-09-21 02:49:00
11:55 PM,48.2,33.8,58,-9999,90.0,South,40.3,-,N/A,,Mostly Cloudy,190,2013-09-21 03:55:00